sensor_id;sensor_type;location;lat;lon;timestamp;P1;durP1;ratioP1;P2;durP2;ratioP2
45642;SDS011;31358;46.008;11.144;2023-01-19T00:01:21;8.40;;;4.35;;
45642;SDS011;31358;46.008;11.144;2023-01-19T00:03:48;6.20;;;3.83;;
45642;SDS011;31358;46.008;11.144;2023-01-19T00:06:14;6.03;;;3.47;;
45642;SDS011;31358;46.008;11.144;2023-01-19T00:08:40;8.27;;;4.38;;
45642;SDS011;31358;46.008;11.144;2023-01-19T00:11:08;9.43;;;5.03;;
45642;SDS011;31358;46.008;11.144;2023-01-19T00:13:35;8.18;;;4.75;;
45642;SDS011;31358;46.008;11.144;2023-01-19T00:16:01;8.20;;;5.00;;
45642;SDS011;31358;46.008;11.144;2023-01-19T00:18:26;10.60;;;5.80;;
45642;SDS011;31358;46.008;11.144;2023-01-19T00:20:52;9.15;;;5.35;;
45642;SDS011;31358;46.008;11.144;2023-01-19T00:23:18;11.23;;;5.93;;
45642;SDS011;31358;46.008;11.144;2023-01-19T00:25:44;7.18;;;4.72;;
45642;SDS011;31358;46.008;11.144;2023-01-19T00:28:13;10.07;;;5.32;;
45642;SDS011;31358;46.008;11.144;2023-01-19T00:30:40;8.88;;;5.22;;
45642;SDS011;31358;46.008;11.144;2023-01-19T00:33:06;8.38;;;5.10;;
45642;SDS011;31358;46.008;11.144;2023-01-19T00:35:34;9.38;;;5.25;;
45642;SDS011;31358;46.008;11.144;2023-01-19T00:38:00;9.65;;;5.15;;
45642;SDS011;31358;46.008;11.144;2023-01-19T00:40:26;7.53;;;4.30;;
45642;SDS011;31358;46.008;11.144;2023-01-19T00:42:52;8.20;;;4.85;;
45642;SDS011;31358;46.008;11.144;2023-01-19T00:45:19;8.98;;;4.78;;
45642;SDS011;31358;46.008;11.144;2023-01-19T00:47:46;9.57;;;5.00;;
45642;SDS011;31358;46.008;11.144;2023-01-19T00:50:14;13.68;;;5.40;;
45642;SDS011;31358;46.008;11.144;2023-01-19T00:52:41;8.52;;;5.22;;
45642;SDS011;31358;46.008;11.144;2023-01-19T00:55:09;11.75;;;4.88;;
45642;SDS011;31358;46.008;11.144;2023-01-19T00:57:37;8.25;;;4.50;;
45642;SDS011;31358;46.008;11.144;2023-01-19T01:00:05;7.88;;;3.92;;
45642;SDS011;31358;46.008;11.144;2023-01-19T01:02:35;8.85;;;5.03;;
45642;SDS011;31358;46.008;11.144;2023-01-19T01:05:02;10.43;;;5.53;;
45642;SDS011;31358;46.008;11.144;2023-01-19T01:07:30;8.45;;;4.75;;
45642;SDS011;31358;46.008;11.144;2023-01-19T01:09:59;8.68;;;4.95;;
45642;SDS011;31358;46.008;11.144;2023-01-19T01:12:25;8.65;;;4.72;;
45642;SDS011;31358;46.008;11.144;2023-01-19T01:14:51;10.45;;;6.05;;
45642;SDS011;31358;46.008;11.144;2023-01-19T01:17:17;8.25;;;5.40;;
45642;SDS011;31358;46.008;11.144;2023-01-19T01:19:48;10.77;;;4.90;;
45642;SDS011;31358;46.008;11.144;2023-01-19T01:22:15;8.13;;;4.45;;
45642;SDS011;31358;46.008;11.144;2023-01-19T01:24:41;10.45;;;4.97;;
45642;SDS011;31358;46.008;11.144;2023-01-19T01:27:06;8.88;;;5.25;;
45642;SDS011;31358;46.008;11.144;2023-01-19T01:29:32;8.55;;;5.28;;
45642;SDS011;31358;46.008;11.144;2023-01-19T01:31:59;11.15;;;5.63;;
45642;SDS011;31358;46.008;11.144;2023-01-19T01:34:25;8.80;;;5.05;;
45642;SDS011;31358;46.008;11.144;2023-01-19T01:36:52;10.13;;;4.88;;
45642;SDS011;31358;46.008;11.144;2023-01-19T01:39:18;10.10;;;5.63;;
45642;SDS011;31358;46.008;11.144;2023-01-19T01:41:45;8.32;;;4.70;;
45642;SDS011;31358;46.008;11.144;2023-01-19T01:47:59;8.43;;;4.95;;
45642;SDS011;31358;46.008;11.144;2023-01-19T01:55:16;8.68;;;4.78;;
45642;SDS011;31358;46.008;11.144;2023-01-19T01:57:46;8.60;;;4.50;;
45642;SDS011;31358;46.008;11.144;2023-01-19T02:00:17;6.97;;;4.05;;
45642;SDS011;31358;46.008;11.144;2023-01-19T02:02:43;9.27;;;4.57;;
45642;SDS011;31358;46.008;11.144;2023-01-19T02:08:10;8.73;;;4.40;;
45642;SDS011;31358;46.008;11.144;2023-01-19T02:11:09;8.07;;;3.58;;
45642;SDS011;31358;46.008;11.144;2023-01-19T02:16:19;6.25;;;3.70;;
45642;SDS011;31358;46.008;11.144;2023-01-19T02:18:45;8.13;;;3.95;;
45642;SDS011;31358;46.008;11.144;2023-01-19T02:21:21;6.05;;;2.88;;
45642;SDS011;31358;46.008;11.144;2023-01-19T02:23:56;7.00;;;3.53;;
45642;SDS011;31358;46.008;11.144;2023-01-19T02:26:32;5.82;;;3.17;;
45642;SDS011;31358;46.008;11.144;2023-01-19T02:31:45;7.70;;;3.38;;
45642;SDS011;31358;46.008;11.144;2023-01-19T02:34:13;6.40;;;2.80;;
45642;SDS011;31358;46.008;11.144;2023-01-19T02:39:24;5.20;;;2.63;;
45642;SDS011;31358;46.008;11.144;2023-01-19T02:41:57;5.07;;;2.97;;
45642;SDS011;31358;46.008;11.144;2023-01-19T02:44:26;6.13;;;3.13;;
45642;SDS011;31358;46.008;11.144;2023-01-19T02:46:54;4.93;;;2.60;;
45642;SDS011;31358;46.008;11.144;2023-01-19T02:49:20;4.88;;;2.63;;
45642;SDS011;31358;46.008;11.144;2023-01-19T02:51:46;5.25;;;2.58;;
45642;SDS011;31358;46.008;11.144;2023-01-19T02:54:25;4.45;;;2.20;;
45642;SDS011;31358;46.008;11.144;2023-01-19T03:11:10;4.57;;;2.22;;
45642;SDS011;31358;46.008;11.144;2023-01-19T03:16:22;4.70;;;2.55;;
45642;SDS011;31358;46.008;11.144;2023-01-19T03:19:14;5.90;;;2.80;;
45642;SDS011;31358;46.008;11.144;2023-01-19T03:21:47;5.45;;;2.38;;
45642;SDS011;31358;46.008;11.144;2023-01-19T03:24:16;6.20;;;2.80;;
45642;SDS011;31358;46.008;11.144;2023-01-19T03:26:46;5.45;;;2.47;;
45642;SDS011;31358;46.008;11.144;2023-01-19T03:31:46;4.45;;;1.88;;
45642;SDS011;31358;46.008;11.144;2023-01-19T03:34:14;4.35;;;1.92;;
45642;SDS011;31358;46.008;11.144;2023-01-19T03:36:43;4.43;;;2.17;;
45642;SDS011;31358;46.008;11.144;2023-01-19T03:39:13;3.83;;;2.30;;
45642;SDS011;31358;46.008;11.144;2023-01-19T03:41:48;4.25;;;2.13;;
45642;SDS011;31358;46.008;11.144;2023-01-19T03:44:24;5.55;;;2.40;;
45642;SDS011;31358;46.008;11.144;2023-01-19T03:46:53;3.97;;;1.80;;
45642;SDS011;31358;46.008;11.144;2023-01-19T03:49:19;4.90;;;2.15;;
45642;SDS011;31358;46.008;11.144;2023-01-19T03:51:45;4.10;;;1.90;;
45642;SDS011;31358;46.008;11.144;2023-01-19T03:54:11;4.57;;;1.58;;
45642;SDS011;31358;46.008;11.144;2023-01-19T03:56:37;4.93;;;2.20;;
45642;SDS011;31358;46.008;11.144;2023-01-19T03:59:02;2.53;;;1.30;;
45642;SDS011;31358;46.008;11.144;2023-01-19T04:01:32;4.25;;;1.98;;
45642;SDS011;31358;46.008;11.144;2023-01-19T04:03:57;3.75;;;1.67;;
45642;SDS011;31358;46.008;11.144;2023-01-19T04:06:23;3.53;;;1.70;;
45642;SDS011;31358;46.008;11.144;2023-01-19T04:08:49;4.22;;;1.80;;
45642;SDS011;31358;46.008;11.144;2023-01-19T04:11:15;4.18;;;2.20;;
45642;SDS011;31358;46.008;11.144;2023-01-19T04:13:41;3.10;;;1.50;;
45642;SDS011;31358;46.008;11.144;2023-01-19T04:16:08;2.70;;;1.33;;
45642;SDS011;31358;46.008;11.144;2023-01-19T04:18:34;3.17;;;2.00;;
45642;SDS011;31358;46.008;11.144;2023-01-19T04:21:01;3.95;;;1.98;;
45642;SDS011;31358;46.008;11.144;2023-01-19T04:23:28;5.07;;;1.90;;
45642;SDS011;31358;46.008;11.144;2023-01-19T04:25:57;2.97;;;1.55;;
45642;SDS011;31358;46.008;11.144;2023-01-19T04:28:28;5.32;;;2.10;;
45642;SDS011;31358;46.008;11.144;2023-01-19T04:30:54;3.53;;;1.55;;
45642;SDS011;31358;46.008;11.144;2023-01-19T04:33:20;2.63;;;1.38;;
45642;SDS011;31358;46.008;11.144;2023-01-19T04:35:47;3.67;;;1.55;;
45642;SDS011;31358;46.008;11.144;2023-01-19T04:38:14;2.53;;;1.15;;
45642;SDS011;31358;46.008;11.144;2023-01-19T04:40:40;4.07;;;1.80;;
45642;SDS011;31358;46.008;11.144;2023-01-19T04:43:06;3.25;;;1.40;;
45642;SDS011;31358;46.008;11.144;2023-01-19T04:45:32;2.63;;;1.33;;
45642;SDS011;31358;46.008;11.144;2023-01-19T04:47:57;5.93;;;1.40;;
45642;SDS011;31358;46.008;11.144;2023-01-19T04:50:23;3.30;;;1.48;;
45642;SDS011;31358;46.008;11.144;2023-01-19T04:52:49;3.17;;;1.30;;
45642;SDS011;31358;46.008;11.144;2023-01-19T04:55:15;2.47;;;1.10;;
45642;SDS011;31358;46.008;11.144;2023-01-19T04:57:41;3.10;;;1.42;;
45642;SDS011;31358;46.008;11.144;2023-01-19T05:00:08;4.50;;;1.65;;
45642;SDS011;31358;46.008;11.144;2023-01-19T05:02:34;4.63;;;1.50;;
45642;SDS011;31358;46.008;11.144;2023-01-19T05:05:00;3.88;;;1.30;;
45642;SDS011;31358;46.008;11.144;2023-01-19T05:07:27;2.72;;;1.25;;
45642;SDS011;31358;46.008;11.144;2023-01-19T05:09:53;3.78;;;1.45;;
45642;SDS011;31358;46.008;11.144;2023-01-19T05:12:19;4.28;;;1.80;;
45642;SDS011;31358;46.008;11.144;2023-01-19T05:14:45;3.75;;;1.65;;
45642;SDS011;31358;46.008;11.144;2023-01-19T05:17:11;3.60;;;1.23;;
45642;SDS011;31358;46.008;11.144;2023-01-19T05:19:36;3.17;;;1.40;;
45642;SDS011;31358;46.008;11.144;2023-01-19T05:22:02;2.65;;;1.42;;
45642;SDS011;31358;46.008;11.144;2023-01-19T05:24:29;2.95;;;1.38;;
45642;SDS011;31358;46.008;11.144;2023-01-19T05:26:55;2.78;;;1.30;;
45642;SDS011;31358;46.008;11.144;2023-01-19T05:29:20;2.55;;;1.10;;
45642;SDS011;31358;46.008;11.144;2023-01-19T05:31:46;2.70;;;1.33;;
45642;SDS011;31358;46.008;11.144;2023-01-19T05:34:12;1.55;;;0.90;;
45642;SDS011;31358;46.008;11.144;2023-01-19T05:36:38;1.95;;;1.05;;
45642;SDS011;31358;46.008;11.144;2023-01-19T05:39:04;3.90;;;1.15;;
45642;SDS011;31358;46.008;11.144;2023-01-19T05:41:30;3.58;;;1.52;;
45642;SDS011;31358;46.008;11.144;2023-01-19T05:43:56;3.28;;;1.50;;
45642;SDS011;31358;46.008;11.144;2023-01-19T05:46:22;2.40;;;1.02;;
45642;SDS011;31358;46.008;11.144;2023-01-19T05:48:48;3.25;;;1.45;;
45642;SDS011;31358;46.008;11.144;2023-01-19T05:51:14;5.03;;;2.30;;
45642;SDS011;31358;46.008;11.144;2023-01-19T05:53:39;5.65;;;1.40;;
45642;SDS011;31358;46.008;11.144;2023-01-19T05:56:06;5.93;;;1.55;;
45642;SDS011;31358;46.008;11.144;2023-01-19T05:58:33;3.70;;;1.60;;
45642;SDS011;31358;46.008;11.144;2023-01-19T06:01:03;3.20;;;1.40;;
45642;SDS011;31358;46.008;11.144;2023-01-19T06:03:33;5.97;;;2.95;;
45642;SDS011;31358;46.008;11.144;2023-01-19T06:05:59;3.20;;;1.42;;
45642;SDS011;31358;46.008;11.144;2023-01-19T06:08:26;2.95;;;1.33;;
45642;SDS011;31358;46.008;11.144;2023-01-19T06:10:52;3.22;;;1.58;;
45642;SDS011;31358;46.008;11.144;2023-01-19T06:13:18;2.90;;;1.10;;
45642;SDS011;31358;46.008;11.144;2023-01-19T06:15:44;3.45;;;1.90;;
45642;SDS011;31358;46.008;11.144;2023-01-19T06:18:10;5.53;;;2.53;;
45642;SDS011;31358;46.008;11.144;2023-01-19T06:20:36;1.63;;;0.90;;
45642;SDS011;31358;46.008;11.144;2023-01-19T06:23:02;2.17;;;0.95;;
45642;SDS011;31358;46.008;11.144;2023-01-19T06:25:28;2.53;;;0.93;;
45642;SDS011;31358;46.008;11.144;2023-01-19T06:27:54;1.13;;;0.70;;
45642;SDS011;31358;46.008;11.144;2023-01-19T06:30:20;2.58;;;1.38;;
45642;SDS011;31358;46.008;11.144;2023-01-19T06:32:46;1.05;;;0.55;;
45642;SDS011;31358;46.008;11.144;2023-01-19T06:35:11;2.35;;;0.65;;
45642;SDS011;31358;46.008;11.144;2023-01-19T06:37:37;1.55;;;0.80;;
45642;SDS011;31358;46.008;11.144;2023-01-19T06:40:03;1.73;;;0.93;;
45642;SDS011;31358;46.008;11.144;2023-01-19T06:42:30;1.42;;;0.68;;
45642;SDS011;31358;46.008;11.144;2023-01-19T06:44:57;1.02;;;0.47;;
45642;SDS011;31358;46.008;11.144;2023-01-19T06:47:22;2.13;;;0.70;;
45642;SDS011;31358;46.008;11.144;2023-01-19T06:49:48;1.38;;;0.70;;
45642;SDS011;31358;46.008;11.144;2023-01-19T06:52:14;1.83;;;0.70;;
45642;SDS011;31358;46.008;11.144;2023-01-19T06:54:41;1.85;;;0.82;;
45642;SDS011;31358;46.008;11.144;2023-01-19T06:57:07;1.75;;;0.88;;
45642;SDS011;31358;46.008;11.144;2023-01-19T06:59:35;1.92;;;1.00;;
45642;SDS011;31358;46.008;11.144;2023-01-19T07:02:01;1.38;;;0.52;;
45642;SDS011;31358;46.008;11.144;2023-01-19T07:04:27;3.50;;;1.40;;
45642;SDS011;31358;46.008;11.144;2023-01-19T07:06:53;1.52;;;0.98;;
45642;SDS011;31358;46.008;11.144;2023-01-19T07:09:19;3.30;;;1.05;;
45642;SDS011;31358;46.008;11.144;2023-01-19T07:11:45;1.48;;;0.60;;
45642;SDS011;31358;46.008;11.144;2023-01-19T07:14:12;0.85;;;0.50;;
45642;SDS011;31358;46.008;11.144;2023-01-19T07:16:37;0.65;;;0.38;;
45642;SDS011;31358;46.008;11.144;2023-01-19T07:19:03;1.70;;;0.50;;
45642;SDS011;31358;46.008;11.144;2023-01-19T07:21:29;3.47;;;0.77;;
45642;SDS011;31358;46.008;11.144;2023-01-19T07:23:54;3.08;;;0.90;;
45642;SDS011;31358;46.008;11.144;2023-01-19T07:26:20;1.02;;;0.52;;
45642;SDS011;31358;46.008;11.144;2023-01-19T07:28:49;0.95;;;0.57;;
45642;SDS011;31358;46.008;11.144;2023-01-19T07:31:15;1.48;;;0.82;;
45642;SDS011;31358;46.008;11.144;2023-01-19T07:33:42;1.42;;;0.60;;
45642;SDS011;31358;46.008;11.144;2023-01-19T07:36:08;2.35;;;0.82;;
45642;SDS011;31358;46.008;11.144;2023-01-19T07:38:34;0.55;;;0.28;;
45642;SDS011;31358;46.008;11.144;2023-01-19T07:41:03;1.88;;;0.55;;
45642;SDS011;31358;46.008;11.144;2023-01-19T07:43:30;1.88;;;0.50;;
45642;SDS011;31358;46.008;11.144;2023-01-19T07:45:57;1.27;;;0.57;;
45642;SDS011;31358;46.008;11.144;2023-01-19T07:48:24;1.42;;;0.60;;
45642;SDS011;31358;46.008;11.144;2023-01-19T07:50:51;1.40;;;0.60;;
45642;SDS011;31358;46.008;11.144;2023-01-19T07:53:17;1.40;;;0.80;;
45642;SDS011;31358;46.008;11.144;2023-01-19T07:55:43;1.13;;;0.50;;
45642;SDS011;31358;46.008;11.144;2023-01-19T07:58:09;5.18;;;1.50;;
45642;SDS011;31358;46.008;11.144;2023-01-19T08:00:35;1.33;;;0.50;;
45642;SDS011;31358;46.008;11.144;2023-01-19T08:03:02;1.33;;;0.60;;
45642;SDS011;31358;46.008;11.144;2023-01-19T08:05:30;2.83;;;1.45;;
45642;SDS011;31358;46.008;11.144;2023-01-19T08:07:57;2.50;;;0.82;;
45642;SDS011;31358;46.008;11.144;2023-01-19T08:10:24;1.35;;;0.82;;
45642;SDS011;31358;46.008;11.144;2023-01-19T08:12:54;1.63;;;0.70;;
45642;SDS011;31358;46.008;11.144;2023-01-19T08:15:20;1.20;;;0.50;;
45642;SDS011;31358;46.008;11.144;2023-01-19T08:17:58;0.80;;;0.35;;
45642;SDS011;31358;46.008;11.144;2023-01-19T08:20:25;2.08;;;0.77;;
45642;SDS011;31358;46.008;11.144;2023-01-19T08:22:53;1.92;;;0.75;;
45642;SDS011;31358;46.008;11.144;2023-01-19T08:28:03;1.75;;;0.57;;
45642;SDS011;31358;46.008;11.144;2023-01-19T08:30:29;1.77;;;0.70;;
45642;SDS011;31358;46.008;11.144;2023-01-19T08:32:56;1.83;;;0.90;;
45642;SDS011;31358;46.008;11.144;2023-01-19T08:35:31;7.22;;;4.25;;
45642;SDS011;31358;46.008;11.144;2023-01-19T08:37:58;1.63;;;0.90;;
45642;SDS011;31358;46.008;11.144;2023-01-19T08:40:32;2.78;;;0.70;;
45642;SDS011;31358;46.008;11.144;2023-01-19T08:43:00;1.08;;;0.77;;
45642;SDS011;31358;46.008;11.144;2023-01-19T08:45:32;2.75;;;1.42;;
45642;SDS011;31358;46.008;11.144;2023-01-19T08:48:01;2.00;;;0.95;;
45642;SDS011;31358;46.008;11.144;2023-01-19T08:50:30;8.85;;;5.43;;
45642;SDS011;31358;46.008;11.144;2023-01-19T08:53:02;2.33;;;1.00;;
45642;SDS011;31358;46.008;11.144;2023-01-19T08:55:30;5.32;;;3.20;;
45642;SDS011;31358;46.008;11.144;2023-01-19T08:57:57;2.40;;;1.10;;
45642;SDS011;31358;46.008;11.144;2023-01-19T09:00:23;1.48;;;1.00;;
45642;SDS011;31358;46.008;11.144;2023-01-19T09:02:51;1.60;;;0.90;;
45642;SDS011;31358;46.008;11.144;2023-01-19T09:05:17;1.40;;;0.65;;
45642;SDS011;31358;46.008;11.144;2023-01-19T09:07:43;0.93;;;0.60;;
45642;SDS011;31358;46.008;11.144;2023-01-19T09:10:10;2.13;;;0.57;;
45642;SDS011;31358;46.008;11.144;2023-01-19T09:12:36;2.65;;;1.63;;
45642;SDS011;31358;46.008;11.144;2023-01-19T09:15:02;3.58;;;1.00;;
45642;SDS011;31358;46.008;11.144;2023-01-19T09:17:29;2.38;;;1.27;;
45642;SDS011;31358;46.008;11.144;2023-01-19T09:19:54;2.53;;;0.98;;
45642;SDS011;31358;46.008;11.144;2023-01-19T09:22:20;2.50;;;1.15;;
45642;SDS011;31358;46.008;11.144;2023-01-19T09:24:45;1.50;;;0.80;;
45642;SDS011;31358;46.008;11.144;2023-01-19T09:27:11;1.83;;;0.77;;
45642;SDS011;31358;46.008;11.144;2023-01-19T09:29:37;1.50;;;0.70;;
45642;SDS011;31358;46.008;11.144;2023-01-19T09:32:03;0.75;;;0.50;;
45642;SDS011;31358;46.008;11.144;2023-01-19T09:34:28;2.40;;;1.00;;
45642;SDS011;31358;46.008;11.144;2023-01-19T09:36:55;2.45;;;0.90;;
45642;SDS011;31358;46.008;11.144;2023-01-19T09:39:21;1.48;;;0.77;;
45642;SDS011;31358;46.008;11.144;2023-01-19T09:41:52;2.17;;;0.75;;
45642;SDS011;31358;46.008;11.144;2023-01-19T09:44:42;4.28;;;0.77;;
45642;SDS011;31358;46.008;11.144;2023-01-19T09:47:16;1.08;;;0.43;;
45642;SDS011;31358;46.008;11.144;2023-01-19T09:49:49;1.98;;;0.68;;
45642;SDS011;31358;46.008;11.144;2023-01-19T09:52:24;1.00;;;0.45;;
45642;SDS011;31358;46.008;11.144;2023-01-19T09:54:53;3.17;;;1.35;;
45642;SDS011;31358;46.008;11.144;2023-01-19T09:57:21;1.95;;;0.70;;
45642;SDS011;31358;46.008;11.144;2023-01-19T09:59:49;0.90;;;0.70;;
45642;SDS011;31358;46.008;11.144;2023-01-19T10:20:43;2.33;;;0.93;;
45642;SDS011;31358;46.008;11.144;2023-01-19T10:23:45;1.92;;;0.80;;
45642;SDS011;31358;46.008;11.144;2023-01-19T10:26:37;2.20;;;0.98;;
45642;SDS011;31358;46.008;11.144;2023-01-19T10:29:15;2.40;;;0.80;;
45642;SDS011;31358;46.008;11.144;2023-01-19T10:32:10;2.28;;;0.85;;
45642;SDS011;31358;46.008;11.144;2023-01-19T10:34:50;2.35;;;0.80;;
45642;SDS011;31358;46.008;11.144;2023-01-19T10:39:42;3.58;;;1.13;;
45642;SDS011;31358;46.008;11.144;2023-01-19T10:42:11;2.42;;;1.10;;
45642;SDS011;31358;46.008;11.144;2023-01-19T10:44:39;2.88;;;1.10;;
45642;SDS011;31358;46.008;11.144;2023-01-19T10:47:05;2.22;;;0.80;;
45642;SDS011;31358;46.008;11.144;2023-01-19T10:49:42;0.90;;;0.57;;
45642;SDS011;31358;46.008;11.144;2023-01-19T10:54:49;1.63;;;0.80;;
45642;SDS011;31358;46.008;11.144;2023-01-19T10:57:25;1.83;;;0.95;;
45642;SDS011;31358;46.008;11.144;2023-01-19T10:59:54;2.60;;;0.85;;
45642;SDS011;31358;46.008;11.144;2023-01-19T11:04:54;2.58;;;0.93;;
45642;SDS011;31358;46.008;11.144;2023-01-19T11:10:11;3.55;;;1.20;;
45642;SDS011;31358;46.008;11.144;2023-01-19T11:12:42;1.58;;;0.90;;
45642;SDS011;31358;46.008;11.144;2023-01-19T11:15:15;1.13;;;0.60;;
45642;SDS011;31358;46.008;11.144;2023-01-19T11:17:44;1.13;;;0.70;;
45642;SDS011;31358;46.008;11.144;2023-01-19T11:20:25;3.22;;;1.42;;
45642;SDS011;31358;46.008;11.144;2023-01-19T11:23:58;3.50;;;1.13;;
45642;SDS011;31358;46.008;11.144;2023-01-19T11:25:58;1.50;;;0.77;;
45642;SDS011;31358;46.008;11.144;2023-01-19T11:28:39;1.63;;;0.82;;
45642;SDS011;31358;46.008;11.144;2023-01-19T11:36:19;27.00;;;10.63;;
45642;SDS011;31358;46.008;11.144;2023-01-19T11:38:54;8.68;;;4.15;;
45642;SDS011;31358;46.008;11.144;2023-01-19T11:43:48;1.77;;;0.93;;
45642;SDS011;31358;46.008;11.144;2023-01-19T11:46:16;3.13;;;0.90;;
45642;SDS011;31358;46.008;11.144;2023-01-19T11:48:53;3.88;;;1.10;;
45642;SDS011;31358;46.008;11.144;2023-01-19T11:51:27;4.88;;;1.45;;
45642;SDS011;31358;46.008;11.144;2023-01-19T11:54:07;3.10;;;1.20;;
45642;SDS011;31358;46.008;11.144;2023-01-19T11:56:48;2.88;;;1.83;;
45642;SDS011;31358;46.008;11.144;2023-01-19T11:59:16;4.30;;;1.10;;
45642;SDS011;31358;46.008;11.144;2023-01-19T12:01:48;1.90;;;1.02;;
45642;SDS011;31358;46.008;11.144;2023-01-19T12:04:20;1.67;;;0.80;;
45642;SDS011;31358;46.008;11.144;2023-01-19T12:06:53;3.80;;;1.90;;
45642;SDS011;31358;46.008;11.144;2023-01-19T12:09:27;4.07;;;1.00;;
45642;SDS011;31358;46.008;11.144;2023-01-19T12:12:02;2.28;;;1.00;;
45642;SDS011;31358;46.008;11.144;2023-01-19T12:17:28;1.75;;;0.85;;
45642;SDS011;31358;46.008;11.144;2023-01-19T12:25:05;2.45;;;0.90;;
45642;SDS011;31358;46.008;11.144;2023-01-19T12:30:04;2.13;;;1.10;;
45642;SDS011;31358;46.008;11.144;2023-01-19T12:32:40;1.85;;;0.75;;
45642;SDS011;31358;46.008;11.144;2023-01-19T12:35:07;2.03;;;0.85;;
45642;SDS011;31358;46.008;11.144;2023-01-19T12:43:40;1.25;;;0.60;;
45642;SDS011;31358;46.008;11.144;2023-01-19T12:46:19;4.07;;;0.98;;
45642;SDS011;31358;46.008;11.144;2023-01-19T12:48:52;1.92;;;0.80;;
45642;SDS011;31358;46.008;11.144;2023-01-19T12:51:22;0.98;;;0.50;;
45642;SDS011;31358;46.008;11.144;2023-01-19T12:53:50;3.38;;;0.95;;
45642;SDS011;31358;46.008;11.144;2023-01-19T12:56:19;2.03;;;0.80;;
45642;SDS011;31358;46.008;11.144;2023-01-19T12:58:54;2.35;;;0.93;;
45642;SDS011;31358;46.008;11.144;2023-01-19T13:01:21;2.45;;;1.10;;
45642;SDS011;31358;46.008;11.144;2023-01-19T13:03:59;2.03;;;0.90;;
45642;SDS011;31358;46.008;11.144;2023-01-19T13:09:30;1.60;;;0.80;;
45642;SDS011;31358;46.008;11.144;2023-01-19T13:14:38;2.00;;;0.93;;
45642;SDS011;31358;46.008;11.144;2023-01-19T13:17:17;1.10;;;0.80;;
45642;SDS011;31358;46.008;11.144;2023-01-19T13:19:59;7.68;;;1.00;;
45642;SDS011;31358;46.008;11.144;2023-01-19T13:25:23;1.42;;;0.60;;
45642;SDS011;31358;46.008;11.144;2023-01-19T13:27:54;0.85;;;0.50;;
45642;SDS011;31358;46.008;11.144;2023-01-19T13:30:21;1.92;;;0.90;;
45642;SDS011;31358;46.008;11.144;2023-01-19T13:32:52;2.55;;;1.00;;
45642;SDS011;31358;46.008;11.144;2023-01-19T13:35:25;2.92;;;0.90;;
45642;SDS011;31358;46.008;11.144;2023-01-19T13:37:51;3.58;;;0.82;;
45642;SDS011;31358;46.008;11.144;2023-01-19T13:40:21;1.92;;;0.85;;
45642;SDS011;31358;46.008;11.144;2023-01-19T13:42:50;5.40;;;1.50;;
45642;SDS011;31358;46.008;11.144;2023-01-19T13:47:59;14.75;;;8.65;;
45642;SDS011;31358;46.008;11.144;2023-01-19T13:50:30;8.32;;;5.25;;
45642;SDS011;31358;46.008;11.144;2023-01-19T13:52:57;7.15;;;4.40;;
45642;SDS011;31358;46.008;11.144;2023-01-19T13:55:25;3.38;;;1.70;;
45642;SDS011;31358;46.008;11.144;2023-01-19T13:57:52;1.75;;;1.00;;
45642;SDS011;31358;46.008;11.144;2023-01-19T14:00:28;1.50;;;0.82;;
45642;SDS011;31358;46.008;11.144;2023-01-19T14:02:59;2.17;;;1.15;;
45642;SDS011;31358;46.008;11.144;2023-01-19T14:05:33;2.67;;;1.00;;
45642;SDS011;31358;46.008;11.144;2023-01-19T14:10:33;3.00;;;1.23;;
45642;SDS011;31358;46.008;11.144;2023-01-19T14:13:01;3.08;;;1.58;;
45642;SDS011;31358;46.008;11.144;2023-01-19T14:15:28;2.65;;;1.20;;
45642;SDS011;31358;46.008;11.144;2023-01-19T14:18:06;3.00;;;1.55;;
45642;SDS011;31358;46.008;11.144;2023-01-19T14:20:52;3.20;;;1.50;;
45642;SDS011;31358;46.008;11.144;2023-01-19T14:31:41;2.53;;;1.08;;
45642;SDS011;31358;46.008;11.144;2023-01-19T14:37:04;2.85;;;1.10;;
45642;SDS011;31358;46.008;11.144;2023-01-19T14:39:50;3.03;;;1.27;;
45642;SDS011;31358;46.008;11.144;2023-01-19T14:42:21;5.30;;;2.75;;
45642;SDS011;31358;46.008;11.144;2023-01-19T14:44:49;6.55;;;3.88;;
45642;SDS011;31358;46.008;11.144;2023-01-19T14:49:53;11.75;;;6.47;;
45642;SDS011;31358;46.008;11.144;2023-01-19T14:52:27;11.82;;;6.85;;
45642;SDS011;31358;46.008;11.144;2023-01-19T14:54:58;3.78;;;1.70;;
45642;SDS011;31358;46.008;11.144;2023-01-19T14:57:27;4.05;;;1.40;;
45642;SDS011;31358;46.008;11.144;2023-01-19T14:59:52;14.20;;;7.57;;
45642;SDS011;31358;46.008;11.144;2023-01-19T15:02:19;4.25;;;2.33;;
45642;SDS011;31358;46.008;11.144;2023-01-19T15:04:46;8.02;;;5.38;;
45642;SDS011;31358;46.008;11.144;2023-01-19T15:07:18;5.80;;;2.45;;
45642;SDS011;31358;46.008;11.144;2023-01-19T15:09:47;4.63;;;1.60;;
45642;SDS011;31358;46.008;11.144;2023-01-19T15:12:13;4.53;;;2.30;;
45642;SDS011;31358;46.008;11.144;2023-01-19T15:14:41;2.40;;;1.30;;
45642;SDS011;31358;46.008;11.144;2023-01-19T15:17:11;7.30;;;1.13;;
45642;SDS011;31358;46.008;11.144;2023-01-19T15:19:49;5.70;;;2.00;;
45642;SDS011;31358;46.008;11.144;2023-01-19T15:22:16;1.95;;;1.00;;
45642;SDS011;31358;46.008;11.144;2023-01-19T15:24:41;2.22;;;1.13;;
45642;SDS011;31358;46.008;11.144;2023-01-19T15:27:10;2.00;;;0.90;;
45642;SDS011;31358;46.008;11.144;2023-01-19T15:29:36;2.53;;;1.20;;
45642;SDS011;31358;46.008;11.144;2023-01-19T15:32:12;3.53;;;2.05;;
45642;SDS011;31358;46.008;11.144;2023-01-19T15:34:39;3.72;;;0.95;;
45642;SDS011;31358;46.008;11.144;2023-01-19T15:37:05;3.40;;;1.20;;
45642;SDS011;31358;46.008;11.144;2023-01-19T15:39:31;3.03;;;1.33;;
45642;SDS011;31358;46.008;11.144;2023-01-19T15:41:57;3.08;;;0.90;;
45642;SDS011;31358;46.008;11.144;2023-01-19T15:44:22;3.25;;;1.48;;
45642;SDS011;31358;46.008;11.144;2023-01-19T15:46:48;2.60;;;1.15;;
45642;SDS011;31358;46.008;11.144;2023-01-19T15:49:14;1.40;;;0.70;;
45642;SDS011;31358;46.008;11.144;2023-01-19T15:51:39;2.25;;;0.98;;
45642;SDS011;31358;46.008;11.144;2023-01-19T15:54:07;4.53;;;1.75;;
45642;SDS011;31358;46.008;11.144;2023-01-19T15:56:39;4.70;;;1.10;;
45642;SDS011;31358;46.008;11.144;2023-01-19T15:59:05;6.10;;;2.72;;
45642;SDS011;31358;46.008;11.144;2023-01-19T16:01:31;5.50;;;1.92;;
45642;SDS011;31358;46.008;11.144;2023-01-19T16:03:59;4.35;;;2.00;;
45642;SDS011;31358;46.008;11.144;2023-01-19T16:06:27;4.50;;;2.05;;
45642;SDS011;31358;46.008;11.144;2023-01-19T16:08:53;3.22;;;1.67;;
45642;SDS011;31358;46.008;11.144;2023-01-19T16:11:24;4.60;;;2.50;;
45642;SDS011;31358;46.008;11.144;2023-01-19T16:13:50;4.20;;;2.22;;
45642;SDS011;31358;46.008;11.144;2023-01-19T16:16:19;4.60;;;2.47;;
45642;SDS011;31358;46.008;11.144;2023-01-19T16:18:47;2.60;;;1.30;;
45642;SDS011;31358;46.008;11.144;2023-01-19T16:21:13;2.83;;;1.52;;
45642;SDS011;31358;46.008;11.144;2023-01-19T16:23:39;3.35;;;1.48;;
45642;SDS011;31358;46.008;11.144;2023-01-19T16:26:06;2.42;;;0.98;;
45642;SDS011;31358;46.008;11.144;2023-01-19T16:28:46;2.50;;;1.20;;
45642;SDS011;31358;46.008;11.144;2023-01-19T16:31:11;4.07;;;1.45;;
45642;SDS011;31358;46.008;11.144;2023-01-19T16:33:38;3.38;;;1.13;;
45642;SDS011;31358;46.008;11.144;2023-01-19T16:39:09;3.58;;;1.75;;
45642;SDS011;31358;46.008;11.144;2023-01-19T16:41:36;11.73;;;6.13;;
45642;SDS011;31358;46.008;11.144;2023-01-19T16:44:03;10.90;;;6.10;;
45642;SDS011;31358;46.008;11.144;2023-01-19T16:46:33;5.55;;;3.10;;
45642;SDS011;31358;46.008;11.144;2023-01-19T16:49:04;13.18;;;8.43;;